createdAt,value
2018-08-22T00:01:49.560Z,24.10
2018-08-22T00:04:20.424Z,24.00
2018-08-22T00:06:51.344Z,23.90
2018-08-22T00:09:22.155Z,24.00
2018-08-22T00:11:52.917Z,24.00
2018-08-22T00:14:23.598Z,23.90
2018-08-22T00:16:54.426Z,23.90
2018-08-22T00:19:25.735Z,23.80
2018-08-22T00:21:56.714Z,23.90
2018-08-22T00:24:27.253Z,23.70
2018-08-22T00:26:57.992Z,23.70
2018-08-22T00:29:28.980Z,23.70
2018-08-22T00:31:59.592Z,23.70
2018-08-22T00:34:30.229Z,23.60
2018-08-22T00:37:00.895Z,23.60
2018-08-22T00:39:31.846Z,23.60
2018-08-22T00:42:02.663Z,23.60
2018-08-22T00:44:33.417Z,23.60
2018-08-22T00:47:04.151Z,23.60
2018-08-22T00:49:34.853Z,23.60
2018-08-22T00:52:05.575Z,23.50
2018-08-22T00:54:36.353Z,23.50
2018-08-22T00:57:07.117Z,23.50
2018-08-22T00:59:38.177Z,23.50
2018-08-22T01:02:09.189Z,23.50
2018-08-22T01:04:39.787Z,23.50
2018-08-22T01:07:10.488Z,23.60
2018-08-22T01:09:41.481Z,23.60
2018-08-22T01:12:12.654Z,23.50
2018-08-22T01:14:43.426Z,23.50
2018-08-22T01:17:14.490Z,23.50
2018-08-22T01:19:45.148Z,23.50
2018-08-22T01:22:15.966Z,23.50
2018-08-22T01:24:46.848Z,23.40
2018-08-22T01:27:21.472Z,23.40
2018-08-22T01:29:54.001Z,23.40
2018-08-22T01:32:24.610Z,23.40
2018-08-22T01:34:55.157Z,23.40
2018-08-22T01:37:25.701Z,23.40
2018-08-22T01:39:56.348Z,23.40
2018-08-22T01:42:26.942Z,23.40
2018-08-22T01:44:57.577Z,23.30
2018-08-22T01:47:28.258Z,23.40
2018-08-22T01:49:58.965Z,23.30
2018-08-22T01:52:29.499Z,23.30
2018-08-22T01:55:00.089Z,23.20
2018-08-22T01:57:30.728Z,23.20
2018-08-22T02:00:01.505Z,23.20
2018-08-22T02:02:32.280Z,23.20
2018-08-22T02:05:03.317Z,23.20
2018-08-22T02:07:34.060Z,23.20
2018-08-22T02:10:05.530Z,23.20
2018-08-22T02:12:36.447Z,23.20
2018-08-22T02:15:07.644Z,23.20
2018-08-22T02:17:38.484Z,23.20
2018-08-22T02:20:09.045Z,23.20
2018-08-22T02:22:39.623Z,23.20
2018-08-22T02:25:10.169Z,23.20
2018-08-22T02:27:40.927Z,23.10
2018-08-22T02:30:11.647Z,23.10
2018-08-22T02:32:42.501Z,23.10
2018-08-22T02:35:13.156Z,23.10
2018-08-22T02:37:43.841Z,23.10
2018-08-22T02:40:14.909Z,23.10
2018-08-22T02:42:45.568Z,23.00
2018-08-22T02:45:16.192Z,23.00
2018-08-22T02:47:46.877Z,23.00
2018-08-22T02:50:17.585Z,23.00
2018-08-22T02:52:48.252Z,23.00
2018-08-22T02:55:18.935Z,22.90
2018-08-22T02:57:49.649Z,22.90
2018-08-22T03:00:20.327Z,22.90
2018-08-22T03:02:51.092Z,22.90
2018-08-22T03:05:22.052Z,22.90
2018-08-22T03:07:52.639Z,22.80
2018-08-22T03:10:23.381Z,22.80
2018-08-22T03:12:53.924Z,22.70
2018-08-22T03:15:24.548Z,22.70
2018-08-22T03:17:55.158Z,22.70
2018-08-22T03:20:25.990Z,22.60
2018-08-22T03:22:56.742Z,22.60
2018-08-22T03:25:27.773Z,22.60
2018-08-22T03:27:58.897Z,22.50
2018-08-22T03:30:29.482Z,22.50
2018-08-22T03:33:00.024Z,22.50
2018-08-22T03:35:30.679Z,22.50
2018-08-22T03:38:01.391Z,22.50
2018-08-22T03:40:32.044Z,22.50
2018-08-22T03:43:02.710Z,22.40
2018-08-22T03:45:33.365Z,22.40
2018-08-22T03:48:04.068Z,22.40
2018-08-22T03:50:34.756Z,22.40
2018-08-22T03:53:05.507Z,22.40
2018-08-22T03:55:36.053Z,22.40
2018-08-22T03:58:06.827Z,22.40
2018-08-22T04:00:37.745Z,22.40
2018-08-22T04:03:08.570Z,22.40
2018-08-22T04:05:39.352Z,22.30
2018-08-22T04:08:10.049Z,22.30
2018-08-22T04:10:40.892Z,22.30
2018-08-22T04:13:12.101Z,22.30
2018-08-22T04:15:42.858Z,22.30
2018-08-22T04:18:13.515Z,22.20
2018-08-22T04:20:44.129Z,22.20
2018-08-22T04:23:14.860Z,22.20
2018-08-22T04:25:45.488Z,22.20
2018-08-22T04:28:16.046Z,22.10
2018-08-22T04:30:46.814Z,22.10
2018-08-22T04:33:18.321Z,22.10
2018-08-22T04:35:49.111Z,22.10
2018-08-22T04:38:19.842Z,22.10
2018-08-22T04:40:50.520Z,22.10
2018-08-22T04:43:21.593Z,22.00
2018-08-22T04:45:52.209Z,22.00
2018-08-22T04:48:23.098Z,22.00
2018-08-22T04:50:53.815Z,22.00
2018-08-22T04:53:24.413Z,21.90
2018-08-22T04:55:54.998Z,21.90
2018-08-22T04:58:25.583Z,21.90
2018-08-22T05:00:56.278Z,21.90
2018-08-22T05:03:27.083Z,21.80
2018-08-22T05:05:57.729Z,21.90
2018-08-22T05:08:28.449Z,21.80
2018-08-22T05:10:59.085Z,21.80
2018-08-22T05:13:29.736Z,21.80
2018-08-22T05:16:00.412Z,22.00
2018-08-22T05:18:31.014Z,21.80
2018-08-22T05:21:01.577Z,21.80
2018-08-22T05:23:32.207Z,21.80
2018-08-22T05:26:03.041Z,21.80
2018-08-22T05:28:33.810Z,21.90
2018-08-22T05:31:04.617Z,21.80
2018-08-22T05:33:35.378Z,21.80
2018-08-22T05:36:06.254Z,21.90
2018-08-22T05:38:36.666Z,21.90
2018-08-22T05:41:07.478Z,21.90
2018-08-22T05:43:38.245Z,21.90
2018-08-22T05:46:08.986Z,22.00
2018-08-22T05:48:39.834Z,22.00
2018-08-22T05:51:10.641Z,22.00
2018-08-22T05:53:41.592Z,22.00
2018-08-22T05:56:12.277Z,22.10
2018-08-22T05:58:43.112Z,22.10
2018-08-22T06:01:14.137Z,22.10
2018-08-22T06:03:45.146Z,22.10
2018-08-22T06:06:15.741Z,22.20
2018-08-22T06:08:46.517Z,22.20
2018-08-22T06:11:17.035Z,22.30
2018-08-22T06:13:48.080Z,22.30
2018-08-22T06:16:18.707Z,22.30
2018-08-22T06:18:49.401Z,22.40
2018-08-22T06:21:19.810Z,22.40
2018-08-22T06:23:50.745Z,22.50
2018-08-22T06:26:21.286Z,22.40
2018-08-22T06:28:52.008Z,22.50
2018-08-22T06:31:22.635Z,22.70
2018-08-22T06:33:53.371Z,22.70
2018-08-22T06:36:30.490Z,22.80
2018-08-22T06:39:01.184Z,22.80
2018-08-22T06:41:31.773Z,22.90
2018-08-22T06:44:02.793Z,23.00
2018-08-22T06:46:33.386Z,23.00
2018-08-22T06:49:03.994Z,23.10
2018-08-22T06:51:34.489Z,23.20
2018-08-22T06:54:05.695Z,23.30
2018-08-22T06:56:36.448Z,23.40
2018-08-22T06:59:07.384Z,23.40
2018-08-22T07:01:37.942Z,23.50
2018-08-22T07:04:08.756Z,23.60
2018-08-22T07:06:39.497Z,23.70
2018-08-22T07:09:12.364Z,25.50
2018-08-22T07:11:49.701Z,23.90
2018-08-22T07:14:20.350Z,24.00
2018-08-22T07:16:51.151Z,24.10
2018-08-22T07:19:21.956Z,24.20
2018-08-22T07:21:52.560Z,24.30
2018-08-22T07:24:23.238Z,24.40
2018-08-22T07:26:54.112Z,24.50
2018-08-22T07:29:24.766Z,24.60
2018-08-22T07:31:55.668Z,24.60
2018-08-22T07:34:26.327Z,24.80
2018-08-22T07:36:56.984Z,24.90
2018-08-22T07:39:27.781Z,24.90
2018-08-22T07:41:58.561Z,25.00
2018-08-22T07:44:29.196Z,25.10
2018-08-22T07:47:00.053Z,25.30
2018-08-22T07:49:30.963Z,25.30
2018-08-22T07:52:01.676Z,25.40
2018-08-22T07:54:48.695Z,25.50
2018-08-22T07:57:21.861Z,25.60
2018-08-22T07:59:53.518Z,25.70
2018-08-22T08:02:24.211Z,25.80
2018-08-22T08:04:55.039Z,25.90
2018-08-22T08:07:25.639Z,26.00
2018-08-22T08:09:56.410Z,26.10
2018-08-22T08:12:32.023Z,26.20
2018-08-22T08:15:05.643Z,26.30
2018-08-22T08:17:36.989Z,26.40
2018-08-22T08:20:07.785Z,26.40
2018-08-22T08:22:38.468Z,26.50
2018-08-22T08:25:09.781Z,26.60
2018-08-22T08:27:40.636Z,26.60
2018-08-22T08:30:11.339Z,26.70
2018-08-22T08:32:41.918Z,26.80
2018-08-22T08:35:13.296Z,26.90
2018-08-22T08:37:44.707Z,26.90
2018-08-22T08:40:15.329Z,27.00
2018-08-22T08:42:46.408Z,27.10
2018-08-22T08:45:17.161Z,27.20
2018-08-22T08:47:48.308Z,27.30
2018-08-22T08:50:19.092Z,27.30
2018-08-22T08:52:50.037Z,27.30
2018-08-22T08:55:21.411Z,27.40
2018-08-22T08:57:58.895Z,27.50
2018-08-22T09:00:29.999Z,27.60
2018-08-22T09:03:01.227Z,27.70
2018-08-22T09:05:32.797Z,27.70
2018-08-22T09:08:04.069Z,27.80
2018-08-22T09:10:35.329Z,27.90
2018-08-22T09:13:09.714Z,28.00
2018-08-22T09:15:41.716Z,28.20
2018-08-22T09:18:13.270Z,28.20
2018-08-22T09:20:44.625Z,28.30
2018-08-22T09:23:16.056Z,28.40
2018-08-22T09:25:47.444Z,28.50
2018-08-22T09:28:18.734Z,28.60
2018-08-22T09:30:50.057Z,28.60
2018-08-22T09:33:21.860Z,28.70
2018-08-22T09:35:53.222Z,28.80
2018-08-22T09:38:24.687Z,29.00
2018-08-22T09:40:56.090Z,29.10
2018-08-22T09:43:27.420Z,29.20
2018-08-22T09:45:58.485Z,29.30
2018-08-22T09:48:29.890Z,29.40
2018-08-22T09:51:01.137Z,29.50
2018-08-22T09:53:32.769Z,29.70
2018-08-22T09:56:04.086Z,29.80
2018-08-22T09:58:35.953Z,30.00
2018-08-22T10:01:12.707Z,30.20
2018-08-22T10:04:01.636Z,30.40
2018-08-22T10:06:45.217Z,30.60
2018-08-22T10:09:25.193Z,30.90
2018-08-22T10:11:56.347Z,31.10
2018-08-22T10:14:27.828Z,31.40
2018-08-22T10:16:59.070Z,31.60
2018-08-22T10:19:30.550Z,31.90
2018-08-22T10:22:02.069Z,32.00
2018-08-22T10:24:33.419Z,32.30
2018-08-22T10:27:05.104Z,32.60
2018-08-22T10:29:36.666Z,32.80
2018-08-22T10:32:07.981Z,33.00
2018-08-22T10:34:39.302Z,33.40
2018-08-22T10:37:10.615Z,33.60
2018-08-22T10:39:41.908Z,33.90
2018-08-22T10:42:13.363Z,34.20
2018-08-22T10:44:44.822Z,34.60
2018-08-22T10:47:16.076Z,34.90
2018-08-22T10:49:47.207Z,35.30
2018-08-22T10:52:20.969Z,35.60
2018-08-22T10:54:52.524Z,35.80
2018-08-22T10:57:23.891Z,36.20
2018-08-22T10:59:55.119Z,36.50
2018-08-22T11:02:26.436Z,36.80
2018-08-22T11:04:57.689Z,37.10
2018-08-22T11:07:29.243Z,37.40
2018-08-22T11:10:00.683Z,37.60
2018-08-22T11:12:32.209Z,37.80
2018-08-22T11:15:03.535Z,38.00
2018-08-22T11:17:34.701Z,38.20
2018-08-22T11:20:06.494Z,38.40
2018-08-22T11:22:54.874Z,38.80
2018-08-22T11:25:42.923Z,39.00
2018-08-22T11:28:30.948Z,39.30
2018-08-22T11:31:18.874Z,39.50
2018-08-22T11:34:06.809Z,39.80
2018-08-22T11:36:36.586Z,40.10
2018-08-22T11:39:09.069Z,40.20
2018-08-22T11:41:40.209Z,40.40
2018-08-22T11:44:11.173Z,40.60
2018-08-22T11:46:42.076Z,40.70
2018-08-22T11:49:13.689Z,40.80
2018-08-22T11:51:44.480Z,40.90
2018-08-22T11:54:15.541Z,41.20
2018-08-22T11:56:46.378Z,41.30
2018-08-22T11:59:24.018Z,41.40
2018-08-22T12:01:55.014Z,41.60
2018-08-22T12:04:26.147Z,41.70
2018-08-22T12:06:57.163Z,41.90
2018-08-22T12:09:28.313Z,42.00
2018-08-22T12:11:59.214Z,42.10
2018-08-22T12:14:30.269Z,42.10
2018-08-22T12:17:01.324Z,42.30
2018-08-22T12:19:32.315Z,42.30
2018-08-22T12:22:03.383Z,42.50
2018-08-22T12:24:34.362Z,42.70
2018-08-22T12:27:05.656Z,42.80
2018-08-22T12:29:37.106Z,43.00
2018-08-22T12:32:08.113Z,43.10
2018-08-22T12:34:39.258Z,43.30
2018-08-22T12:37:10.175Z,43.40
2018-08-22T12:39:41.165Z,43.50
2018-08-22T12:42:12.336Z,43.60
2018-08-22T12:44:43.257Z,43.70
2018-08-22T12:47:14.158Z,43.90
2018-08-22T12:49:45.358Z,43.80
2018-08-22T12:52:16.343Z,43.80
2018-08-22T12:54:47.453Z,43.70
2018-08-22T12:57:18.425Z,43.40
2018-08-22T12:59:49.517Z,43.20
2018-08-22T13:02:20.665Z,43.00
2018-08-22T13:04:51.509Z,42.90
2018-08-22T13:07:22.502Z,42.90
2018-08-22T13:09:53.589Z,42.80
2018-08-22T13:12:24.473Z,42.80
2018-08-22T13:14:55.905Z,42.50
2018-08-22T13:17:26.722Z,42.30
2018-08-22T13:19:57.630Z,42.20
2018-08-22T13:22:28.601Z,42.10
2018-08-22T13:25:00.090Z,42.20
2018-08-22T13:27:31.640Z,41.90
2018-08-22T13:30:03.110Z,41.60
2018-08-22T13:32:34.499Z,41.40
2018-08-22T13:35:06.100Z,41.00
2018-08-22T13:37:37.566Z,40.70
2018-08-22T13:40:09.162Z,40.20
2018-08-22T13:42:40.550Z,39.70
2018-08-22T13:45:12.547Z,39.30
2018-08-22T13:47:43.737Z,38.80
2018-08-22T13:50:15.083Z,38.50
2018-08-22T13:52:46.239Z,38.10
2018-08-22T13:55:17.579Z,37.90
2018-08-22T13:57:48.916Z,37.60
2018-08-22T14:00:26.351Z,37.40
2018-08-22T14:02:57.470Z,37.20
2018-08-22T14:05:29.158Z,37.10
2018-08-22T14:08:00.530Z,36.80
2018-08-22T14:10:31.793Z,36.60
2018-08-22T14:13:03.105Z,36.40
2018-08-22T14:15:34.443Z,36.20
2018-08-22T14:18:05.873Z,36.00
2018-08-22T14:20:37.140Z,36.00
2018-08-22T14:23:09.177Z,35.80
2018-08-22T14:25:40.464Z,35.70
2018-08-22T14:28:11.880Z,35.60
2018-08-22T14:30:43.879Z,35.80
2018-08-22T14:33:15.228Z,35.40
2018-08-22T14:35:47.315Z,35.40
2018-08-22T14:38:18.835Z,35.40
2018-08-22T14:40:50.444Z,35.40
2018-08-22T14:43:21.677Z,35.40
2018-08-22T14:45:52.832Z,35.40
2018-08-22T14:48:24.181Z,35.40
2018-08-22T14:50:55.409Z,35.40
2018-08-22T14:53:26.947Z,35.40
2018-08-22T14:55:58.416Z,35.50
2018-08-22T14:58:29.791Z,35.50
2018-08-22T15:01:01.046Z,35.50
2018-08-22T15:03:32.455Z,35.50
2018-08-22T15:06:04.209Z,35.50
2018-08-22T15:08:35.364Z,35.50
2018-08-22T15:11:07.066Z,35.40
2018-08-22T15:13:38.457Z,35.30
2018-08-22T15:16:09.797Z,35.20
2018-08-22T15:18:41.078Z,35.10
2018-08-22T15:21:12.691Z,34.90
2018-08-22T15:23:44.356Z,34.80
2018-08-22T15:26:15.687Z,34.60
2018-08-22T15:28:47.356Z,34.50
2018-08-22T15:31:18.951Z,34.40
2018-08-22T15:33:50.233Z,34.30
2018-08-22T15:36:21.871Z,34.20
2018-08-22T15:38:53.503Z,34.10
2018-08-22T15:41:24.872Z,34.00
2018-08-22T15:43:56.320Z,33.90
2018-08-22T15:46:27.597Z,33.80
2018-08-22T15:48:58.819Z,33.70
2018-08-22T15:51:30.238Z,33.60
2018-08-22T15:54:14.829Z,33.60
2018-08-22T15:56:46.319Z,33.50
2018-08-22T15:59:19.161Z,33.40
2018-08-22T16:01:50.299Z,33.40
2018-08-22T16:04:21.446Z,33.30
2018-08-22T16:06:58.761Z,33.30
2018-08-22T16:09:33.114Z,33.20
2018-08-22T16:12:04.465Z,33.20
2018-08-22T16:14:35.640Z,33.10
2018-08-22T16:17:06.977Z,33.10
2018-08-22T16:19:38.255Z,33.00
2018-08-22T16:22:09.528Z,33.00
2018-08-22T16:24:42.611Z,32.90
2018-08-22T16:27:13.729Z,32.90
2018-08-22T16:29:45.124Z,32.80
2018-08-22T16:32:16.367Z,32.80
2018-08-22T16:34:47.996Z,32.70
2018-08-22T16:37:19.670Z,32.70
2018-08-22T16:39:51.012Z,32.60
2018-08-22T16:42:26.260Z,32.50
2018-08-22T16:44:57.601Z,32.50
2018-08-22T16:47:33.013Z,32.40
2018-08-22T16:50:06.533Z,32.40
2018-08-22T16:52:37.814Z,32.30
2018-08-22T16:55:19.882Z,32.30
2018-08-22T16:57:51.784Z,32.20
2018-08-22T17:00:34.799Z,32.10
2018-08-22T17:03:07.622Z,32.10
2018-08-22T17:05:38.706Z,32.00
2018-08-22T17:08:10.280Z,31.90
2018-08-22T17:11:00.141Z,31.90
2018-08-22T17:13:41.744Z,31.80
2018-08-22T17:16:13.057Z,31.70
2018-08-22T17:18:44.269Z,31.70
2018-08-22T17:21:15.783Z,31.60
2018-08-22T17:23:47.513Z,31.60
2018-08-22T17:26:20.052Z,31.50
2018-08-22T17:28:54.117Z,31.60
2018-08-22T17:31:26.437Z,31.40
2018-08-22T17:34:00.775Z,31.30
2018-08-22T17:36:32.058Z,31.30
2018-08-22T17:39:03.585Z,31.20
2018-08-22T17:41:34.687Z,31.20
2018-08-22T17:44:13.843Z,31.20
2018-08-22T17:46:49.558Z,31.10
2018-08-22T17:49:20.701Z,31.10
2018-08-22T17:52:15.069Z,31.00
2018-08-22T17:54:46.240Z,30.90
2018-08-22T17:57:26.854Z,30.90
2018-08-22T17:59:58.697Z,30.80
2018-08-22T18:02:29.832Z,30.70
2018-08-22T18:05:03.846Z,30.70
2018-08-22T18:07:35.453Z,30.60
2018-08-22T18:10:06.941Z,30.60
2018-08-22T18:12:44.646Z,30.50
2018-08-22T18:15:15.838Z,30.50
2018-08-22T18:17:49.370Z,30.40
2018-08-22T18:20:20.558Z,30.30
2018-08-22T18:22:51.725Z,30.30
2018-08-22T18:25:23.114Z,30.20
2018-08-22T18:28:00.269Z,30.20
2018-08-22T18:30:31.401Z,30.10
2018-08-22T18:33:02.760Z,30.00
2018-08-22T18:35:33.693Z,30.00
2018-08-22T18:38:05.216Z,30.00
2018-08-22T18:40:36.378Z,29.90
2018-08-22T18:43:08.475Z,29.80
2018-08-22T18:45:55.165Z,29.80
2018-08-22T18:48:26.608Z,29.70
2018-08-22T18:50:57.823Z,29.60
2018-08-22T18:53:29.701Z,29.60
2018-08-22T18:56:14.766Z,29.50
2018-08-22T18:58:46.230Z,29.50
2018-08-22T19:01:17.331Z,29.40
2018-08-22T19:03:49.282Z,29.40
2018-08-22T19:06:20.509Z,29.30
2018-08-22T19:08:52.053Z,29.20
2018-08-22T19:11:23.198Z,29.20
2018-08-22T19:13:54.456Z,29.10
2018-08-22T19:16:25.700Z,29.10
2018-08-22T19:18:57.089Z,29.00
2018-08-22T19:21:29.113Z,28.90
2018-08-22T19:24:06.022Z,28.90
2018-08-22T19:26:37.430Z,28.80
2018-08-22T19:29:08.683Z,28.80
2018-08-22T19:31:46.286Z,28.70
2018-08-22T19:34:17.067Z,28.70
2018-08-22T19:36:48.632Z,28.60
2018-08-22T19:39:19.992Z,28.60
2018-08-22T19:41:51.714Z,28.60
2018-08-22T19:44:23.000Z,28.40
2018-08-22T19:46:54.572Z,28.40
2018-08-22T19:49:25.902Z,28.40
2018-08-22T19:51:56.793Z,28.30
2018-08-22T19:54:27.414Z,28.30
2018-08-22T19:56:58.672Z,28.30
2018-08-22T19:59:29.961Z,28.20
2018-08-22T20:02:01.588Z,28.20
2018-08-22T20:04:33.326Z,28.10
2018-08-22T20:07:04.462Z,28.10
2018-08-22T20:09:37.294Z,28.00
2018-08-22T20:12:08.262Z,28.00
2018-08-22T20:14:53.903Z,27.90
2018-08-22T20:17:29.481Z,27.90
2018-08-22T20:20:00.725Z,27.80
2018-08-22T20:22:35.429Z,27.80
2018-08-22T20:25:07.642Z,27.70
2018-08-22T20:27:38.604Z,27.70
2018-08-22T20:30:17.964Z,27.60
2018-08-22T20:32:58.455Z,27.50
2018-08-22T20:35:35.336Z,27.50
2018-08-22T20:38:07.666Z,27.40
2018-08-22T20:40:38.477Z,27.40
2018-08-22T20:43:20.308Z,27.40
2018-08-22T20:45:51.272Z,27.30
2018-08-22T20:48:22.058Z,27.20
2018-08-22T20:50:53.297Z,27.20
2018-08-22T20:53:24.061Z,27.20
2018-08-22T20:55:55.053Z,27.10
2018-08-22T20:58:30.768Z,27.10
2018-08-22T21:01:01.828Z,27.00
2018-08-22T21:03:32.386Z,27.00
2018-08-22T21:06:03.364Z,26.90
2018-08-22T21:08:34.086Z,26.80
2018-08-22T21:11:05.236Z,26.70
2018-08-22T21:13:35.820Z,26.70
2018-08-22T21:16:06.819Z,26.70
2018-08-22T21:18:37.624Z,26.60
2018-08-22T21:21:17.746Z,26.60
2018-08-22T21:23:48.607Z,26.50
2018-08-22T21:26:36.176Z,26.50
2018-08-22T21:29:07.318Z,26.50
2018-08-22T21:31:38.324Z,26.40
2018-08-22T21:34:15.156Z,26.40
2018-08-22T21:36:46.533Z,26.30
2018-08-22T21:39:24.787Z,26.30
2018-08-22T21:41:56.096Z,26.20
2018-08-22T21:44:27.027Z,26.10
2018-08-22T21:47:02.986Z,26.20
2018-08-22T21:49:33.641Z,26.10
2018-08-22T21:52:04.265Z,26.10
2018-08-22T21:54:34.909Z,26.10
2018-08-22T21:57:05.714Z,26.10
2018-08-22T21:59:36.786Z,26.00
2018-08-22T22:02:08.882Z,26.00
2018-08-22T22:04:40.787Z,25.90
2018-08-22T22:07:12.506Z,25.90
2018-08-22T22:09:43.372Z,25.90
2018-08-22T22:12:19.521Z,25.90
2018-08-22T22:14:50.475Z,25.80
2018-08-22T22:17:21.169Z,25.80
2018-08-22T22:19:51.731Z,25.80
2018-08-22T22:22:22.322Z,25.80
2018-08-22T22:24:57.558Z,25.70
2018-08-22T22:27:29.281Z,25.70
2018-08-22T22:30:04.718Z,25.60
2018-08-22T22:32:35.636Z,26.00
2018-08-22T22:35:06.310Z,25.50
2018-08-22T22:37:36.906Z,25.50
2018-08-22T22:40:08.337Z,25.50
2018-08-22T22:42:38.838Z,25.40
2018-08-22T22:45:09.717Z,25.40
2018-08-22T22:47:40.697Z,25.40
2018-08-22T22:50:11.265Z,25.40
2018-08-22T22:52:45.529Z,25.30
2018-08-22T22:55:16.096Z,25.30
2018-08-22T22:57:47.033Z,25.30
2018-08-22T23:00:18.712Z,25.20
2018-08-22T23:02:54.827Z,25.20
2018-08-22T23:05:30.610Z,25.10
2018-08-22T23:08:03.394Z,25.20
2018-08-22T23:10:34.023Z,25.10
2018-08-22T23:13:04.797Z,25.00
2018-08-22T23:15:36.681Z,25.00
2018-08-22T23:18:07.266Z,25.00
2018-08-22T23:20:41.893Z,24.90
2018-08-22T23:23:36.301Z,24.80
2018-08-22T23:26:19.783Z,24.80
2018-08-22T23:28:50.444Z,24.80
2018-08-22T23:31:21.754Z,24.80
2018-08-22T23:33:52.392Z,24.70
2018-08-22T23:36:23.062Z,24.70
2018-08-22T23:38:53.749Z,24.70
2018-08-22T23:41:24.342Z,24.60
2018-08-22T23:43:55.084Z,24.60
2018-08-22T23:46:26.141Z,24.60
2018-08-22T23:48:59.249Z,24.60
2018-08-22T23:51:29.730Z,24.50
2018-08-22T23:54:01.109Z,24.50
2018-08-22T23:56:32.255Z,24.50
2018-08-22T23:59:02.991Z,24.40
